Cookshire, Canada
Current Conditions -  °F | °C
As of 7:00 AM on Monday 20 Oct 2014 (Local Time) from CYSC Reporting Station
Overcast Overcast  
Wind Chill: 29°   Ceiling: 4100
Heat Index: 34°   Visibility: 9mi
Dew Point: 27°   Wind: 6mph
Humidity: 75%   Direction: 270°W
Pressure: 29.95"   Gusts: NA
Location:  45.42°N, 71.62°W
Report Text: CYSC 201100Z AUTO 27005KT 9SM OVC041 01/M03 A2995 RMK SLP150
Loading
Personal Weather Stations






























Interactive Weather Map
Tropical Storm Tracking
New forecast layout! Learn more

10-Day Weather Forecast

Advertisements
Track Severe Weather on mobile